createdAt,value
2019-03-08T00:02:16.417Z,59.31
2019-03-08T00:07:20.828Z,59.19
2019-03-08T00:12:25.165Z,59.17
2019-03-08T00:17:29.601Z,58.40
2019-03-08T00:22:33.968Z,58.42
2019-03-08T00:27:38.308Z,58.20
2019-03-08T00:32:42.789Z,58.37
2019-03-08T00:37:47.141Z,57.77
2019-03-08T00:42:51.640Z,57.93
2019-03-08T00:47:56.326Z,58.04
2019-03-08T00:53:00.680Z,57.71
2019-03-08T00:58:06.214Z,57.65
2019-03-08T01:03:10.583Z,57.65
2019-03-08T01:08:14.948Z,57.67
2019-03-08T01:13:19.300Z,58.00
2019-03-08T01:18:23.674Z,58.54
2019-03-08T01:23:28.026Z,58.76
2019-03-08T01:28:33.724Z,59.52
2019-03-08T01:33:38.138Z,59.51
2019-03-08T01:38:42.511Z,60.02
2019-03-08T01:43:46.845Z,60.57
2019-03-08T01:48:51.250Z,60.61
2019-03-08T01:53:55.624Z,60.37
2019-03-08T02:06:02.737Z,60.41
2019-03-08T02:11:07.123Z,60.22
2019-03-08T02:16:11.483Z,60.12
2019-03-08T02:21:16.969Z,59.17
2019-03-08T02:26:21.353Z,59.39
2019-03-08T02:31:25.732Z,58.26
2019-03-08T02:36:31.906Z,58.25
2019-03-08T02:41:36.279Z,57.62
2019-03-08T02:46:40.726Z,57.39
2019-03-08T02:51:45.104Z,56.95
2019-03-08T02:56:49.445Z,56.71
2019-03-08T03:01:53.846Z,56.42
2019-03-08T03:06:58.223Z,56.09
2019-03-08T03:12:02.590Z,56.12
2019-03-08T03:17:06.920Z,56.28
2019-03-08T03:22:11.361Z,56.32
2019-03-08T03:27:15.723Z,56.01
2019-03-08T03:32:20.063Z,56.29
2019-03-08T03:37:24.432Z,55.86
2019-03-08T03:42:28.814Z,55.75
2019-03-08T03:47:33.189Z,56.09
2019-03-08T03:52:37.554Z,56.48
2019-03-08T03:57:41.917Z,56.89
2019-03-08T04:02:46.292Z,57.28
2019-03-08T04:07:50.800Z,56.97
2019-03-08T04:12:55.129Z,56.99
2019-03-08T04:18:01.061Z,56.73
2019-03-08T04:23:05.430Z,56.94
2019-03-08T04:28:09.803Z,56.44
2019-03-08T04:33:14.149Z,56.69
2019-03-08T04:38:18.538Z,56.69
2019-03-08T04:43:24.030Z,56.85
2019-03-08T04:48:28.366Z,56.14
2019-03-08T04:53:33.026Z,56.74
2019-03-08T04:58:37.390Z,56.63
2019-03-08T05:03:41.770Z,56.44
2019-03-08T05:08:47.094Z,56.05
2019-03-08T05:13:51.456Z,55.82
2019-03-08T05:18:55.820Z,55.84
2019-03-08T05:24:00.181Z,55.69
2019-03-08T05:29:04.554Z,56.49
2019-03-08T05:34:08.902Z,56.60
2019-03-08T05:39:13.284Z,56.70
2019-03-08T05:44:17.908Z,57.01
2019-03-08T05:49:22.324Z,57.51
2019-03-08T05:54:26.695Z,57.44
2019-03-08T05:59:31.147Z,57.45
2019-03-08T06:04:35.584Z,56.46
2019-03-08T06:09:40.091Z,55.93
2019-03-08T06:14:44.435Z,56.27
2019-03-08T06:19:48.770Z,56.58
2019-03-08T06:24:53.330Z,56.64
2019-03-08T06:29:57.898Z,56.45
2019-03-08T06:35:02.292Z,56.30
2019-03-08T06:40:09.772Z,56.15
2019-03-08T06:45:18.023Z,56.36
2019-03-08T06:50:22.659Z,56.07
2019-03-08T06:55:27.033Z,54.89
2019-03-08T07:00:33.112Z,54.56
2019-03-08T07:05:37.576Z,53.46
2019-03-08T07:10:42.006Z,53.14
2019-03-08T07:15:46.348Z,52.55
2019-03-08T07:21:01.640Z,52.26
2019-03-08T07:26:10.913Z,51.84
2019-03-08T07:31:16.927Z,52.22
2019-03-08T07:36:41.334Z,51.70
2019-03-08T07:41:50.275Z,51.95
2019-03-08T07:46:56.352Z,52.16
2019-03-08T07:52:05.112Z,52.40
2019-03-08T07:57:13.860Z,52.39
2019-03-08T08:02:22.664Z,52.19
2019-03-08T08:07:28.727Z,52.19
2019-03-08T08:12:34.765Z,52.03
2019-03-08T08:17:40.804Z,51.78
2019-03-08T08:23:03.168Z,50.94
2019-03-08T08:28:24.501Z,51.29
2019-03-08T08:33:30.536Z,51.63
2019-03-08T08:38:36.547Z,51.47
2019-03-08T08:43:45.217Z,51.82
2019-03-08T08:49:13.793Z,51.73
2019-03-08T08:54:29.007Z,51.85
2019-03-08T08:59:39.651Z,51.41
2019-03-08T09:04:55.916Z,51.61
2019-03-08T09:10:04.718Z,51.58
2019-03-08T09:15:25.340Z,52.08
2019-03-08T09:20:43.408Z,51.82
2019-03-08T09:26:05.796Z,51.64
2019-03-08T09:31:28.227Z,51.62
2019-03-08T09:36:40.513Z,52.03
2019-03-08T09:41:49.777Z,51.82
2019-03-08T09:46:55.855Z,51.88
2019-03-08T09:52:04.890Z,51.97
2019-03-08T09:57:27.239Z,51.90
2019-03-08T10:02:33.269Z,52.20
2019-03-08T10:07:39.322Z,52.79
2019-03-08T10:12:45.514Z,52.76
2019-03-08T10:17:57.323Z,52.90
2019-03-08T10:23:19.829Z,52.79
2019-03-08T10:28:30.303Z,53.05
2019-03-08T10:33:46.240Z,53.32
2019-03-08T10:38:46.745Z,53.23
2019-03-08T10:43:52.905Z,53.36
2019-03-08T10:48:58.919Z,53.38
2019-03-08T10:54:17.331Z,53.36
2019-03-08T10:59:26.362Z,52.95
2019-03-08T11:04:39.347Z,52.54
2019-03-08T11:09:57.639Z,53.19
2019-03-08T11:15:24.473Z,53.11
2019-03-08T11:20:26.515Z,53.91
2019-03-08T11:25:44.268Z,54.15
2019-03-08T11:30:53.880Z,54.60
2019-03-08T11:35:58.097Z,55.70
2019-03-08T11:41:19.049Z,58.21
2019-03-08T11:46:43.264Z,57.66
2019-03-08T11:51:49.313Z,57.35
2019-03-08T11:56:56.413Z,57.85
2019-03-08T12:02:18.910Z,58.28
2019-03-08T12:07:24.900Z,58.83
2019-03-08T12:12:30.979Z,58.06
2019-03-08T12:17:52.267Z,59.63
2019-03-08T12:23:07.685Z,61.17
2019-03-08T12:28:13.738Z,59.39
2019-03-08T12:33:19.763Z,60.40
2019-03-08T12:38:25.815Z,61.05
2019-03-08T12:43:31.917Z,61.40
2019-03-08T12:48:43.627Z,60.81
2019-03-08T12:59:13.034Z,62.89
2019-03-08T13:04:31.258Z,62.84
2019-03-08T13:09:40.287Z,63.63
2019-03-08T13:14:44.707Z,63.62
2019-03-08T13:19:49.056Z,61.72
2019-03-08T13:24:53.397Z,61.09
2019-03-08T13:29:57.822Z,61.37
2019-03-08T13:35:02.205Z,60.12
2019-03-08T13:40:08.992Z,58.48
2019-03-08T13:45:21.099Z,59.78
2019-03-08T13:50:25.511Z,60.57
2019-03-08T13:55:29.867Z,60.38
2019-03-08T14:00:34.245Z,60.18
2019-03-08T14:05:39.023Z,60.43
2019-03-08T14:10:43.476Z,59.63
2019-03-08T14:15:47.862Z,59.69
2019-03-08T14:20:52.203Z,59.03
2019-03-08T14:25:56.589Z,59.68
2019-03-08T14:31:05.243Z,58.84
2019-03-08T14:36:09.693Z,58.25
2019-03-08T14:41:15.766Z,59.24
2019-03-08T14:46:22.186Z,59.54
2019-03-08T14:51:26.542Z,58.71
2019-03-08T14:56:31.983Z,58.69
2019-03-08T15:01:39.935Z,58.01
2019-03-08T15:06:43.059Z,58.41
2019-03-08T15:11:48.583Z,62.45
2019-03-08T15:16:52.906Z,64.30
2019-03-08T15:21:57.543Z,65.62
2019-03-08T15:27:01.910Z,69.79
2019-03-08T15:32:06.314Z,76.21
2019-03-08T15:37:10.672Z,81.67
2019-03-08T15:42:15.061Z,82.57
2019-03-08T15:47:23.647Z,82.05
2019-03-08T15:52:25.609Z,80.18
2019-03-08T15:57:29.946Z,77.37
2019-03-08T16:02:34.308Z,77.05
2019-03-08T16:07:38.646Z,76.58
2019-03-08T16:12:43.018Z,75.25
2019-03-08T16:17:47.427Z,76.42
2019-03-08T16:22:51.846Z,78.44
2019-03-08T16:27:56.267Z,77.15
2019-03-08T16:33:05.568Z,76.87
2019-03-08T16:38:27.961Z,77.96
2019-03-08T16:43:45.798Z,77.85
2019-03-08T16:48:55.394Z,76.00
2019-03-08T16:54:01.481Z,76.83
2019-03-08T16:59:10.169Z,75.47
2019-03-08T17:04:21.671Z,74.53
2019-03-08T17:09:36.452Z,74.53
2019-03-08T17:14:58.598Z,75.40
2019-03-08T17:20:21.901Z,76.06
2019-03-08T17:25:39.962Z,76.92
2019-03-08T17:30:46.002Z,76.91
2019-03-08T17:36:04.062Z,77.41
2019-03-08T17:41:10.030Z,76.77
2019-03-08T17:46:18.735Z,76.47
2019-03-08T17:51:33.221Z,76.56
2019-03-08T17:56:48.024Z,78.20
2019-03-08T18:01:59.565Z,78.62
2019-03-08T18:07:05.544Z,78.33
2019-03-08T18:12:11.544Z,76.46
2019-03-08T18:17:20.426Z,77.12
2019-03-08T18:22:34.855Z,77.71
2019-03-08T18:27:40.874Z,78.12
2019-03-08T18:32:46.873Z,78.16
2019-03-08T18:38:08.983Z,78.74
2019-03-08T18:43:30.095Z,79.33
2019-03-08T18:48:45.397Z,77.94
2019-03-08T18:54:10.408Z,79.20
2019-03-08T18:59:16.458Z,79.91
2019-03-08T19:04:34.509Z,80.56
2019-03-08T19:09:50.364Z,79.08
2019-03-08T19:14:59.383Z,80.84
2019-03-08T19:20:24.168Z,81.03
2019-03-08T19:25:42.792Z,79.19
2019-03-08T19:31:00.977Z,78.10
2019-03-08T19:36:09.704Z,81.33
2019-03-08T19:41:15.744Z,81.30
2019-03-08T19:46:38.109Z,83.84
2019-03-08T19:51:53.228Z,82.34
2019-03-08T19:57:14.825Z,83.65
2019-03-08T20:02:22.066Z,78.78
2019-03-08T20:07:46.375Z,76.30
2019-03-08T20:12:54.002Z,73.66
2019-03-08T20:18:01.854Z,74.43
2019-03-08T20:23:24.883Z,74.40
2019-03-08T20:28:32.910Z,74.75
2019-03-08T20:33:46.721Z,74.11
2019-03-08T20:39:03.891Z,74.85
2019-03-08T20:44:12.525Z,75.00
2019-03-08T20:49:19.706Z,74.66
2019-03-08T20:54:24.759Z,74.67
2019-03-08T20:59:29.477Z,74.38
2019-03-08T21:04:35.190Z,75.39
2019-03-08T21:09:39.993Z,74.92
2019-03-08T21:14:44.465Z,75.11
2019-03-08T21:19:49.068Z,74.87
2019-03-08T21:24:55.178Z,74.49
2019-03-08T21:29:59.998Z,76.51
2019-03-08T21:35:05.339Z,77.09
2019-03-08T21:40:14.495Z,76.67
2019-03-08T21:45:19.010Z,75.29
2019-03-08T21:50:23.430Z,75.83
2019-03-08T21:55:27.849Z,75.89
2019-03-08T22:00:33.706Z,75.55
2019-03-08T22:05:39.748Z,74.28
2019-03-08T22:10:48.510Z,74.19
2019-03-08T22:15:52.879Z,74.08
2019-03-08T22:20:57.257Z,73.20
2019-03-08T22:26:01.811Z,73.97
2019-03-08T22:31:07.084Z,73.74
2019-03-08T22:36:11.434Z,72.05
2019-03-08T22:41:15.890Z,72.21
2019-03-08T22:46:20.240Z,72.64
2019-03-08T22:51:24.731Z,72.28
2019-03-08T22:56:29.103Z,71.83
2019-03-08T23:01:44.069Z,71.53
2019-03-08T23:06:48.482Z,72.53
2019-03-08T23:11:52.848Z,72.70
2019-03-08T23:16:57.202Z,72.09
2019-03-08T23:22:01.554Z,71.59
2019-03-08T23:27:19.612Z,71.74
2019-03-08T23:32:25.927Z,71.52
2019-03-08T23:37:30.250Z,71.65
2019-03-08T23:42:34.585Z,72.45
2019-03-08T23:52:55.284Z,71.97
2019-03-08T23:57:59.637Z,72.07
